sensor_id;sensor_type;location;lat;lon;timestamp;P1;durP1;ratioP1;P2;durP2;ratioP2
42944;SDS011;28584;42.636;23.294;2022-08-21T00:02:23;40.88;;;19.58;;
42944;SDS011;28584;42.636;23.294;2022-08-21T00:04:50;52.33;;;23.67;;
42944;SDS011;28584;42.636;23.294;2022-08-21T00:07:16;44.65;;;20.67;;
42944;SDS011;28584;42.636;23.294;2022-08-21T00:09:45;46.85;;;21.90;;
42944;SDS011;28584;42.636;23.294;2022-08-21T00:12:10;46.42;;;22.15;;
42944;SDS011;28584;42.636;23.294;2022-08-21T00:14:36;40.50;;;19.88;;
42944;SDS011;28584;42.636;23.294;2022-08-21T00:17:02;41.17;;;19.80;;
42944;SDS011;28584;42.636;23.294;2022-08-21T00:19:28;43.13;;;20.00;;
42944;SDS011;28584;42.636;23.294;2022-08-21T00:21:54;43.85;;;19.73;;
42944;SDS011;28584;42.636;23.294;2022-08-21T00:24:20;42.20;;;19.50;;
42944;SDS011;28584;42.636;23.294;2022-08-21T00:26:47;35.70;;;16.92;;
42944;SDS011;28584;42.636;23.294;2022-08-21T00:29:13;34.08;;;18.48;;
42944;SDS011;28584;42.636;23.294;2022-08-21T00:31:40;33.22;;;15.88;;
42944;SDS011;28584;42.636;23.294;2022-08-21T00:34:06;35.53;;;16.23;;
42944;SDS011;28584;42.636;23.294;2022-08-21T00:36:32;26.38;;;14.38;;
42944;SDS011;28584;42.636;23.294;2022-08-21T00:39:00;24.38;;;13.38;;
42944;SDS011;28584;42.636;23.294;2022-08-21T00:41:25;23.25;;;13.63;;
42944;SDS011;28584;42.636;23.294;2022-08-21T00:43:51;25.75;;;11.25;;
42944;SDS011;28584;42.636;23.294;2022-08-21T00:46:17;23.17;;;10.93;;
42944;SDS011;28584;42.636;23.294;2022-08-21T00:48:43;17.98;;;8.98;;
42944;SDS011;28584;42.636;23.294;2022-08-21T00:51:23;17.08;;;8.05;;
42944;SDS011;28584;42.636;23.294;2022-08-21T00:53:57;16.60;;;9.00;;
42944;SDS011;28584;42.636;23.294;2022-08-21T00:56:25;15.68;;;9.40;;
42944;SDS011;28584;42.636;23.294;2022-08-21T00:58:52;14.77;;;9.25;;
42944;SDS011;28584;42.636;23.294;2022-08-21T01:01:19;22.05;;;9.48;;
42944;SDS011;28584;42.636;23.294;2022-08-21T01:03:45;14.90;;;9.52;;
42944;SDS011;28584;42.636;23.294;2022-08-21T01:06:11;17.15;;;9.55;;
42944;SDS011;28584;42.636;23.294;2022-08-21T01:08:36;16.58;;;9.57;;
42944;SDS011;28584;42.636;23.294;2022-08-21T01:11:02;14.10;;;9.65;;
42944;SDS011;28584;42.636;23.294;2022-08-21T01:13:29;13.35;;;8.88;;
42944;SDS011;28584;42.636;23.294;2022-08-21T01:15:56;24.15;;;11.07;;
42944;SDS011;28584;42.636;23.294;2022-08-21T01:18:24;15.98;;;10.13;;
42944;SDS011;28584;42.636;23.294;2022-08-21T01:21:07;16.50;;;10.05;;
42944;SDS011;28584;42.636;23.294;2022-08-21T01:23:33;15.57;;;9.63;;
42944;SDS011;28584;42.636;23.294;2022-08-21T01:26:01;17.58;;;9.60;;
42944;SDS011;28584;42.636;23.294;2022-08-21T01:28:27;19.63;;;9.13;;
42944;SDS011;28584;42.636;23.294;2022-08-21T01:30:56;14.95;;;8.50;;
42944;SDS011;28584;42.636;23.294;2022-08-21T01:33:24;14.07;;;8.73;;
42944;SDS011;28584;42.636;23.294;2022-08-21T01:35:50;14.88;;;8.63;;
42944;SDS011;28584;42.636;23.294;2022-08-21T01:38:16;15.35;;;8.10;;
42944;SDS011;28584;42.636;23.294;2022-08-21T01:40:42;14.10;;;9.20;;
42944;SDS011;28584;42.636;23.294;2022-08-21T01:43:07;13.27;;;8.30;;
42944;SDS011;28584;42.636;23.294;2022-08-21T01:45:33;15.27;;;9.00;;
42944;SDS011;28584;42.636;23.294;2022-08-21T01:47:58;21.05;;;10.15;;
42944;SDS011;28584;42.636;23.294;2022-08-21T01:50:24;13.60;;;9.50;;
42944;SDS011;28584;42.636;23.294;2022-08-21T01:52:50;13.52;;;8.75;;
42944;SDS011;28584;42.636;23.294;2022-08-21T01:55:17;18.52;;;10.75;;
42944;SDS011;28584;42.636;23.294;2022-08-21T01:57:43;21.55;;;11.07;;
42944;SDS011;28584;42.636;23.294;2022-08-21T02:00:11;24.98;;;11.07;;
42944;SDS011;28584;42.636;23.294;2022-08-21T02:02:39;16.75;;;10.60;;
42944;SDS011;28584;42.636;23.294;2022-08-21T02:05:06;15.23;;;9.35;;
42944;SDS011;28584;42.636;23.294;2022-08-21T02:07:43;17.13;;;9.13;;
42944;SDS011;28584;42.636;23.294;2022-08-21T02:10:16;15.05;;;8.43;;
42944;SDS011;28584;42.636;23.294;2022-08-21T02:12:44;22.20;;;10.20;;
42944;SDS011;28584;42.636;23.294;2022-08-21T02:15:10;16.52;;;8.55;;
42944;SDS011;28584;42.636;23.294;2022-08-21T02:17:40;16.05;;;8.73;;
42944;SDS011;28584;42.636;23.294;2022-08-21T02:20:08;15.27;;;9.07;;
42944;SDS011;28584;42.636;23.294;2022-08-21T02:22:36;17.08;;;8.05;;
42944;SDS011;28584;42.636;23.294;2022-08-21T02:25:02;15.27;;;8.98;;
42944;SDS011;28584;42.636;23.294;2022-08-21T02:27:28;16.10;;;8.07;;
42944;SDS011;28584;42.636;23.294;2022-08-21T02:29:55;12.93;;;7.05;;
42944;SDS011;28584;42.636;23.294;2022-08-21T02:32:21;19.30;;;7.75;;
42944;SDS011;28584;42.636;23.294;2022-08-21T02:34:47;15.73;;;7.63;;
42944;SDS011;28584;42.636;23.294;2022-08-21T02:37:13;15.02;;;7.88;;
42944;SDS011;28584;42.636;23.294;2022-08-21T02:39:39;15.43;;;7.95;;
42944;SDS011;28584;42.636;23.294;2022-08-21T02:42:04;10.48;;;7.25;;
42944;SDS011;28584;42.636;23.294;2022-08-21T02:44:30;18.45;;;8.02;;
42944;SDS011;28584;42.636;23.294;2022-08-21T02:46:55;13.23;;;7.22;;
42944;SDS011;28584;42.636;23.294;2022-08-21T02:49:20;11.80;;;7.47;;
42944;SDS011;28584;42.636;23.294;2022-08-21T02:51:46;12.00;;;7.38;;
42944;SDS011;28584;42.636;23.294;2022-08-21T02:54:11;15.65;;;7.60;;
42944;SDS011;28584;42.636;23.294;2022-08-21T02:56:36;9.55;;;7.07;;
42944;SDS011;28584;42.636;23.294;2022-08-21T02:59:02;11.70;;;6.90;;
42944;SDS011;28584;42.636;23.294;2022-08-21T03:01:27;10.18;;;6.30;;
42944;SDS011;28584;42.636;23.294;2022-08-21T03:03:53;13.88;;;7.32;;
42944;SDS011;28584;42.636;23.294;2022-08-21T03:06:19;15.35;;;8.18;;
42944;SDS011;28584;42.636;23.294;2022-08-21T03:08:46;13.75;;;6.47;;
42944;SDS011;28584;42.636;23.294;2022-08-21T03:11:12;14.45;;;6.45;;
42944;SDS011;28584;42.636;23.294;2022-08-21T03:13:38;13.48;;;7.22;;
42944;SDS011;28584;42.636;23.294;2022-08-21T03:16:04;9.65;;;7.95;;
42944;SDS011;28584;42.636;23.294;2022-08-21T03:18:29;13.52;;;7.70;;
42944;SDS011;28584;42.636;23.294;2022-08-21T03:20:55;11.05;;;7.15;;
42944;SDS011;28584;42.636;23.294;2022-08-21T03:23:21;14.48;;;6.88;;
42944;SDS011;28584;42.636;23.294;2022-08-21T03:25:47;14.35;;;7.35;;
42944;SDS011;28584;42.636;23.294;2022-08-21T03:28:15;14.20;;;6.65;;
42944;SDS011;28584;42.636;23.294;2022-08-21T03:30:42;9.55;;;6.25;;
42944;SDS011;28584;42.636;23.294;2022-08-21T03:33:09;10.38;;;6.45;;
42944;SDS011;28584;42.636;23.294;2022-08-21T03:35:35;11.90;;;6.40;;
42944;SDS011;28584;42.636;23.294;2022-08-21T03:38:01;11.80;;;6.88;;
42944;SDS011;28584;42.636;23.294;2022-08-21T03:40:27;14.18;;;6.80;;
42944;SDS011;28584;42.636;23.294;2022-08-21T03:42:52;14.10;;;6.53;;
42944;SDS011;28584;42.636;23.294;2022-08-21T03:45:18;14.38;;;6.63;;
42944;SDS011;28584;42.636;23.294;2022-08-21T03:47:57;15.60;;;6.53;;
42944;SDS011;28584;42.636;23.294;2022-08-21T03:50:25;10.10;;;7.10;;
42944;SDS011;28584;42.636;23.294;2022-08-21T03:52:53;14.73;;;7.03;;
42944;SDS011;28584;42.636;23.294;2022-08-21T03:55:20;9.52;;;6.13;;
42944;SDS011;28584;42.636;23.294;2022-08-21T03:57:46;14.25;;;7.30;;
42944;SDS011;28584;42.636;23.294;2022-08-21T04:00:13;10.63;;;6.90;;
42944;SDS011;28584;42.636;23.294;2022-08-21T04:02:40;14.45;;;6.90;;
42944;SDS011;28584;42.636;23.294;2022-08-21T04:05:06;13.18;;;6.88;;
42944;SDS011;28584;42.636;23.294;2022-08-21T04:07:32;12.68;;;6.75;;
42944;SDS011;28584;42.636;23.294;2022-08-21T04:09:57;13.07;;;6.47;;
42944;SDS011;28584;42.636;23.294;2022-08-21T04:12:23;10.60;;;6.90;;
42944;SDS011;28584;42.636;23.294;2022-08-21T04:14:48;11.88;;;7.43;;
42944;SDS011;28584;42.636;23.294;2022-08-21T04:17:16;12.88;;;7.13;;
42944;SDS011;28584;42.636;23.294;2022-08-21T04:19:42;19.65;;;8.45;;
42944;SDS011;28584;42.636;23.294;2022-08-21T04:22:08;11.48;;;7.30;;
42944;SDS011;28584;42.636;23.294;2022-08-21T04:24:34;13.10;;;7.45;;
42944;SDS011;28584;42.636;23.294;2022-08-21T04:26:59;18.73;;;8.77;;
42944;SDS011;28584;42.636;23.294;2022-08-21T04:29:25;15.60;;;9.02;;
42944;SDS011;28584;42.636;23.294;2022-08-21T04:31:50;13.65;;;7.97;;
42944;SDS011;28584;42.636;23.294;2022-08-21T04:34:17;14.50;;;8.02;;
42944;SDS011;28584;42.636;23.294;2022-08-21T04:36:43;12.45;;;7.88;;
42944;SDS011;28584;42.636;23.294;2022-08-21T04:39:09;11.40;;;6.93;;
42944;SDS011;28584;42.636;23.294;2022-08-21T04:41:34;12.40;;;7.60;;
42944;SDS011;28584;42.636;23.294;2022-08-21T04:44:01;20.30;;;8.25;;
42944;SDS011;28584;42.636;23.294;2022-08-21T04:46:27;12.30;;;7.28;;
42944;SDS011;28584;42.636;23.294;2022-08-21T04:48:53;11.80;;;8.02;;
42944;SDS011;28584;42.636;23.294;2022-08-21T04:51:20;14.45;;;8.82;;
42944;SDS011;28584;42.636;23.294;2022-08-21T04:53:56;17.05;;;8.52;;
42944;SDS011;28584;42.636;23.294;2022-08-21T04:56:29;18.50;;;9.07;;
42944;SDS011;28584;42.636;23.294;2022-08-21T04:59:05;17.88;;;9.75;;
42944;SDS011;28584;42.636;23.294;2022-08-21T05:01:36;15.52;;;9.65;;
42944;SDS011;28584;42.636;23.294;2022-08-21T05:04:04;16.15;;;10.10;;
42944;SDS011;28584;42.636;23.294;2022-08-21T05:06:33;17.50;;;9.43;;
42944;SDS011;28584;42.636;23.294;2022-08-21T05:09:02;18.08;;;10.45;;
42944;SDS011;28584;42.636;23.294;2022-08-21T05:11:29;16.90;;;8.95;;
42944;SDS011;28584;42.636;23.294;2022-08-21T05:13:55;13.18;;;8.48;;
42944;SDS011;28584;42.636;23.294;2022-08-21T05:16:20;14.27;;;8.05;;
42944;SDS011;28584;42.636;23.294;2022-08-21T05:18:46;16.08;;;8.35;;
42944;SDS011;28584;42.636;23.294;2022-08-21T05:21:11;13.00;;;7.75;;
42944;SDS011;28584;42.636;23.294;2022-08-21T05:23:36;13.27;;;7.63;;
42944;SDS011;28584;42.636;23.294;2022-08-21T05:26:02;17.58;;;9.05;;
42944;SDS011;28584;42.636;23.294;2022-08-21T05:28:29;15.75;;;9.82;;
42944;SDS011;28584;42.636;23.294;2022-08-21T05:30:55;18.00;;;10.30;;
42944;SDS011;28584;42.636;23.294;2022-08-21T05:33:20;17.58;;;9.75;;
42944;SDS011;28584;42.636;23.294;2022-08-21T05:35:48;16.20;;;10.05;;
42944;SDS011;28584;42.636;23.294;2022-08-21T05:38:16;16.08;;;9.68;;
42944;SDS011;28584;42.636;23.294;2022-08-21T05:40:41;17.75;;;9.90;;
42944;SDS011;28584;42.636;23.294;2022-08-21T05:43:08;15.77;;;9.88;;
42944;SDS011;28584;42.636;23.294;2022-08-21T05:45:33;14.48;;;10.02;;
42944;SDS011;28584;42.636;23.294;2022-08-21T05:48:05;18.80;;;10.35;;
42944;SDS011;28584;42.636;23.294;2022-08-21T05:50:34;10.82;;;9.25;;
42944;SDS011;28584;42.636;23.294;2022-08-21T05:53:01;14.38;;;9.20;;
42944;SDS011;28584;42.636;23.294;2022-08-21T05:55:26;15.73;;;9.77;;
42944;SDS011;28584;42.636;23.294;2022-08-21T05:57:52;14.55;;;8.40;;
42944;SDS011;28584;42.636;23.294;2022-08-21T06:00:17;17.95;;;8.98;;
42944;SDS011;28584;42.636;23.294;2022-08-21T06:02:43;12.15;;;9.00;;
42944;SDS011;28584;42.636;23.294;2022-08-21T06:05:08;14.52;;;9.73;;
42944;SDS011;28584;42.636;23.294;2022-08-21T06:07:34;11.77;;;8.65;;
42944;SDS011;28584;42.636;23.294;2022-08-21T06:09:59;15.20;;;8.82;;
42944;SDS011;28584;42.636;23.294;2022-08-21T06:12:26;13.20;;;7.65;;
42944;SDS011;28584;42.636;23.294;2022-08-21T06:14:51;11.73;;;7.38;;
42944;SDS011;28584;42.636;23.294;2022-08-21T06:17:17;13.35;;;7.85;;
42944;SDS011;28584;42.636;23.294;2022-08-21T06:19:43;11.50;;;6.65;;
42944;SDS011;28584;42.636;23.294;2022-08-21T06:22:08;9.23;;;6.18;;
42944;SDS011;28584;42.636;23.294;2022-08-21T06:24:34;12.73;;;6.05;;
42944;SDS011;28584;42.636;23.294;2022-08-21T06:27:04;12.52;;;5.50;;
42944;SDS011;28584;42.636;23.294;2022-08-21T06:29:31;6.70;;;5.18;;
42944;SDS011;28584;42.636;23.294;2022-08-21T06:31:57;9.95;;;6.32;;
42944;SDS011;28584;42.636;23.294;2022-08-21T06:34:22;10.18;;;5.90;;
42944;SDS011;28584;42.636;23.294;2022-08-21T06:36:47;11.80;;;6.45;;
42944;SDS011;28584;42.636;23.294;2022-08-21T06:39:13;10.30;;;6.13;;
42944;SDS011;28584;42.636;23.294;2022-08-21T06:41:38;9.18;;;6.20;;
42944;SDS011;28584;42.636;23.294;2022-08-21T06:44:05;8.30;;;6.22;;
42944;SDS011;28584;42.636;23.294;2022-08-21T06:46:30;8.20;;;6.57;;
42944;SDS011;28584;42.636;23.294;2022-08-21T06:48:56;10.60;;;6.15;;
42944;SDS011;28584;42.636;23.294;2022-08-21T06:51:22;13.30;;;7.38;;
42944;SDS011;28584;42.636;23.294;2022-08-21T06:53:50;11.30;;;7.35;;
42944;SDS011;28584;42.636;23.294;2022-08-21T06:56:15;12.07;;;7.15;;
42944;SDS011;28584;42.636;23.294;2022-08-21T06:58:41;11.98;;;7.65;;
42944;SDS011;28584;42.636;23.294;2022-08-21T07:01:07;11.85;;;7.25;;
42944;SDS011;28584;42.636;23.294;2022-08-21T07:03:33;10.05;;;6.93;;
42944;SDS011;28584;42.636;23.294;2022-08-21T07:06:03;8.85;;;7.00;;
42944;SDS011;28584;42.636;23.294;2022-08-21T07:08:30;12.57;;;7.25;;
42944;SDS011;28584;42.636;23.294;2022-08-21T07:10:57;11.38;;;6.60;;
42944;SDS011;28584;42.636;23.294;2022-08-21T07:13:24;11.30;;;6.38;;
42944;SDS011;28584;42.636;23.294;2022-08-21T07:15:51;14.02;;;7.20;;
42944;SDS011;28584;42.636;23.294;2022-08-21T07:18:16;13.27;;;7.35;;
42944;SDS011;28584;42.636;23.294;2022-08-21T07:20:42;9.93;;;6.30;;
42944;SDS011;28584;42.636;23.294;2022-08-21T07:23:12;10.48;;;6.65;;
42944;SDS011;28584;42.636;23.294;2022-08-21T07:25:49;9.32;;;6.57;;
42944;SDS011;28584;42.636;23.294;2022-08-21T07:28:15;8.93;;;6.28;;
42944;SDS011;28584;42.636;23.294;2022-08-21T07:30:40;10.02;;;5.40;;
42944;SDS011;28584;42.636;23.294;2022-08-21T07:33:05;12.90;;;6.40;;
42944;SDS011;28584;42.636;23.294;2022-08-21T07:35:32;10.02;;;6.75;;
42944;SDS011;28584;42.636;23.294;2022-08-21T07:37:58;7.80;;;6.15;;
42944;SDS011;28584;42.636;23.294;2022-08-21T07:40:23;12.27;;;6.00;;
42944;SDS011;28584;42.636;23.294;2022-08-21T07:42:49;8.50;;;6.00;;
42944;SDS011;28584;42.636;23.294;2022-08-21T07:45:16;13.23;;;6.47;;
42944;SDS011;28584;42.636;23.294;2022-08-21T07:47:46;11.77;;;6.88;;
42944;SDS011;28584;42.636;23.294;2022-08-21T07:50:13;12.65;;;5.68;;
42944;SDS011;28584;42.636;23.294;2022-08-21T07:52:40;11.57;;;6.05;;
42944;SDS011;28584;42.636;23.294;2022-08-21T07:55:06;8.07;;;6.15;;
42944;SDS011;28584;42.636;23.294;2022-08-21T07:57:33;7.72;;;5.80;;
42944;SDS011;28584;42.636;23.294;2022-08-21T07:59:59;8.68;;;5.53;;
42944;SDS011;28584;42.636;23.294;2022-08-21T08:02:29;7.28;;;5.80;;
42944;SDS011;28584;42.636;23.294;2022-08-21T08:04:58;9.07;;;5.65;;
42944;SDS011;28584;42.636;23.294;2022-08-21T08:07:28;9.00;;;5.70;;
42944;SDS011;28584;42.636;23.294;2022-08-21T08:09:54;8.55;;;5.68;;
42944;SDS011;28584;42.636;23.294;2022-08-21T08:12:19;8.20;;;4.97;;
42944;SDS011;28584;42.636;23.294;2022-08-21T08:14:45;13.63;;;6.05;;
42944;SDS011;28584;42.636;23.294;2022-08-21T08:17:11;9.20;;;6.03;;
42944;SDS011;28584;42.636;23.294;2022-08-21T08:19:38;13.60;;;6.18;;
42944;SDS011;28584;42.636;23.294;2022-08-21T08:22:11;11.60;;;6.18;;
42944;SDS011;28584;42.636;23.294;2022-08-21T08:24:38;13.50;;;6.13;;
42944;SDS011;28584;42.636;23.294;2022-08-21T08:27:04;9.30;;;5.47;;
42944;SDS011;28584;42.636;23.294;2022-08-21T08:29:30;11.02;;;5.63;;
42944;SDS011;28584;42.636;23.294;2022-08-21T08:31:55;8.13;;;5.25;;
42944;SDS011;28584;42.636;23.294;2022-08-21T08:34:21;9.93;;;5.30;;
42944;SDS011;28584;42.636;23.294;2022-08-21T08:36:47;8.43;;;5.10;;
42944;SDS011;28584;42.636;23.294;2022-08-21T08:39:13;10.25;;;5.32;;
42944;SDS011;28584;42.636;23.294;2022-08-21T08:41:38;9.45;;;5.70;;
42944;SDS011;28584;42.636;23.294;2022-08-21T08:44:06;9.60;;;5.30;;
42944;SDS011;28584;42.636;23.294;2022-08-21T08:52:06;7.35;;;4.75;;
42944;SDS011;28584;42.636;23.294;2022-08-21T08:54:47;7.68;;;4.85;;
42944;SDS011;28584;42.636;23.294;2022-08-21T08:57:21;10.93;;;6.15;;
42944;SDS011;28584;42.636;23.294;2022-08-21T08:59:49;11.90;;;6.10;;
42944;SDS011;28584;42.636;23.294;2022-08-21T09:02:18;8.63;;;5.15;;
42944;SDS011;28584;42.636;23.294;2022-08-21T09:04:45;13.88;;;6.03;;
42944;SDS011;28584;42.636;23.294;2022-08-21T09:10:38;10.57;;;5.32;;
42944;SDS011;28584;42.636;23.294;2022-08-21T09:13:13;10.25;;;5.60;;
42944;SDS011;28584;42.636;23.294;2022-08-21T09:15:46;9.77;;;5.15;;
42944;SDS011;28584;42.636;23.294;2022-08-21T09:21:26;10.32;;;5.68;;
42944;SDS011;28584;42.636;23.294;2022-08-21T09:24:02;10.77;;;5.07;;
42944;SDS011;28584;42.636;23.294;2022-08-21T09:27:20;7.15;;;5.10;;
42944;SDS011;28584;42.636;23.294;2022-08-21T09:29:24;9.15;;;5.60;;
42944;SDS011;28584;42.636;23.294;2022-08-21T09:31:54;9.93;;;4.93;;
42944;SDS011;28584;42.636;23.294;2022-08-21T09:34:24;15.85;;;6.28;;
42944;SDS011;28584;42.636;23.294;2022-08-21T09:36:54;9.98;;;5.55;;
42944;SDS011;28584;42.636;23.294;2022-08-21T09:39:31;10.57;;;5.00;;
42944;SDS011;28584;42.636;23.294;2022-08-21T09:42:05;7.80;;;5.07;;
42944;SDS011;28584;42.636;23.294;2022-08-21T09:44:34;13.95;;;5.97;;
42944;SDS011;28584;42.636;23.294;2022-08-21T09:47:05;7.47;;;5.10;;
42944;SDS011;28584;42.636;23.294;2022-08-21T09:49:38;13.00;;;5.75;;
42944;SDS011;28584;42.636;23.294;2022-08-21T09:52:26;9.90;;;5.47;;
42944;SDS011;28584;42.636;23.294;2022-08-21T09:54:53;7.78;;;5.07;;
42944;SDS011;28584;42.636;23.294;2022-08-21T09:57:25;10.80;;;5.05;;
42944;SDS011;28584;42.636;23.294;2022-08-21T10:02:55;12.85;;;6.13;;
42944;SDS011;28584;42.636;23.294;2022-08-21T10:05:33;10.00;;;6.30;;
42944;SDS011;28584;42.636;23.294;2022-08-21T10:07:59;8.40;;;5.80;;
42944;SDS011;28584;42.636;23.294;2022-08-21T10:10:26;8.73;;;5.43;;
42944;SDS011;28584;42.636;23.294;2022-08-21T10:20:35;8.63;;;5.18;;
42944;SDS011;28584;42.636;23.294;2022-08-21T10:25:41;11.32;;;5.50;;
42944;SDS011;28584;42.636;23.294;2022-08-21T10:28:17;8.93;;;5.45;;
42944;SDS011;28584;42.636;23.294;2022-08-21T10:30:58;19.20;;;6.50;;
42944;SDS011;28584;42.636;23.294;2022-08-21T10:33:31;14.85;;;7.15;;
42944;SDS011;28584;42.636;23.294;2022-08-21T10:36:14;7.47;;;5.38;;
42944;SDS011;28584;42.636;23.294;2022-08-21T10:47:22;11.82;;;6.15;;
42944;SDS011;28584;42.636;23.294;2022-08-21T10:49:51;10.75;;;5.93;;
42944;SDS011;28584;42.636;23.294;2022-08-21T10:57:42;12.18;;;5.35;;
42944;SDS011;28584;42.636;23.294;2022-08-21T11:00:14;7.13;;;5.32;;
42944;SDS011;28584;42.636;23.294;2022-08-21T11:02:45;8.57;;;4.95;;
42944;SDS011;28584;42.636;23.294;2022-08-21T11:08:12;11.70;;;5.18;;
42944;SDS011;28584;42.636;23.294;2022-08-21T11:10:44;13.00;;;5.63;;
42944;SDS011;28584;42.636;23.294;2022-08-21T11:16:05;8.18;;;5.00;;
42944;SDS011;28584;42.636;23.294;2022-08-21T11:19:02;9.68;;;4.93;;
42944;SDS011;28584;42.636;23.294;2022-08-21T11:21:41;9.50;;;5.18;;
42944;SDS011;28584;42.636;23.294;2022-08-21T11:29:36;9.93;;;5.65;;
42944;SDS011;28584;42.636;23.294;2022-08-21T11:39:57;8.90;;;4.95;;
42944;SDS011;28584;42.636;23.294;2022-08-21T11:47:54;9.43;;;4.78;;
42944;SDS011;28584;42.636;23.294;2022-08-21T11:50:32;7.78;;;4.80;;
42944;SDS011;28584;42.636;23.294;2022-08-21T11:55:50;8.10;;;5.13;;
42944;SDS011;28584;42.636;23.294;2022-08-21T11:58:31;7.68;;;5.22;;
42944;SDS011;28584;42.636;23.294;2022-08-21T12:01:05;9.73;;;4.90;;
42944;SDS011;28584;42.636;23.294;2022-08-21T12:03:36;9.80;;;5.20;;
42944;SDS011;28584;42.636;23.294;2022-08-21T12:06:06;9.00;;;5.38;;
42944;SDS011;28584;42.636;23.294;2022-08-21T12:08:33;10.07;;;5.63;;
42944;SDS011;28584;42.636;23.294;2022-08-21T12:13:38;7.93;;;4.70;;
42944;SDS011;28584;42.636;23.294;2022-08-21T12:16:28;9.07;;;4.97;;
42944;SDS011;28584;42.636;23.294;2022-08-21T12:24:19;14.15;;;4.70;;
42944;SDS011;28584;42.636;23.294;2022-08-21T12:27:01;8.65;;;5.13;;
42944;SDS011;28584;42.636;23.294;2022-08-21T12:29:38;6.65;;;4.82;;
42944;SDS011;28584;42.636;23.294;2022-08-21T12:32:27;7.82;;;4.60;;
42944;SDS011;28584;42.636;23.294;2022-08-21T12:35:13;10.13;;;5.35;;
42944;SDS011;28584;42.636;23.294;2022-08-21T12:37:46;9.38;;;4.35;;
42944;SDS011;28584;42.636;23.294;2022-08-21T12:40:22;8.82;;;5.53;;
42944;SDS011;28584;42.636;23.294;2022-08-21T12:42:55;5.95;;;4.43;;
42944;SDS011;28584;42.636;23.294;2022-08-21T12:45:33;7.75;;;4.90;;
42944;SDS011;28584;42.636;23.294;2022-08-21T12:48:20;9.07;;;5.32;;
42944;SDS011;28584;42.636;23.294;2022-08-21T12:51:08;11.13;;;5.63;;
42944;SDS011;28584;42.636;23.294;2022-08-21T12:53:46;9.45;;;6.10;;
42944;SDS011;28584;42.636;23.294;2022-08-21T12:56:15;8.48;;;5.43;;
42944;SDS011;28584;42.636;23.294;2022-08-21T12:58:46;7.90;;;4.90;;
42944;SDS011;28584;42.636;23.294;2022-08-21T13:01:24;8.15;;;4.80;;
42944;SDS011;28584;42.636;23.294;2022-08-21T13:03:57;12.40;;;5.13;;
42944;SDS011;28584;42.636;23.294;2022-08-21T13:06:26;7.18;;;4.75;;
42944;SDS011;28584;42.636;23.294;2022-08-21T13:08:57;9.30;;;4.70;;
42944;SDS011;28584;42.636;23.294;2022-08-21T13:11:29;10.50;;;4.85;;
42944;SDS011;28584;42.636;23.294;2022-08-21T13:13:56;8.52;;;4.85;;
42944;SDS011;28584;42.636;23.294;2022-08-21T13:16:24;7.38;;;5.53;;
42944;SDS011;28584;42.636;23.294;2022-08-21T13:18:57;8.45;;;5.55;;
42944;SDS011;28584;42.636;23.294;2022-08-21T13:21:31;8.48;;;5.50;;
42944;SDS011;28584;42.636;23.294;2022-08-21T13:24:17;11.70;;;5.50;;
42944;SDS011;28584;42.636;23.294;2022-08-21T13:26:48;5.70;;;5.10;;
42944;SDS011;28584;42.636;23.294;2022-08-21T13:29:16;11.32;;;5.65;;
42944;SDS011;28584;42.636;23.294;2022-08-21T13:31:52;8.85;;;4.93;;
42944;SDS011;28584;42.636;23.294;2022-08-21T13:34:21;8.38;;;5.47;;
42944;SDS011;28584;42.636;23.294;2022-08-21T13:36:50;7.85;;;4.88;;
42944;SDS011;28584;42.636;23.294;2022-08-21T13:39:17;8.32;;;4.43;;
42944;SDS011;28584;42.636;23.294;2022-08-21T13:41:46;6.45;;;4.03;;
42944;SDS011;28584;42.636;23.294;2022-08-21T13:44:22;5.55;;;3.88;;
42944;SDS011;28584;42.636;23.294;2022-08-21T13:46:56;4.47;;;3.88;;
42944;SDS011;28584;42.636;23.294;2022-08-21T13:49:26;8.85;;;4.47;;
42944;SDS011;28584;42.636;23.294;2022-08-21T13:51:56;9.55;;;5.30;;
42944;SDS011;28584;42.636;23.294;2022-08-21T13:54:23;10.88;;;5.15;;
42944;SDS011;28584;42.636;23.294;2022-08-21T13:56:52;8.82;;;4.85;;
42944;SDS011;28584;42.636;23.294;2022-08-21T13:59:28;7.28;;;5.22;;
42944;SDS011;28584;42.636;23.294;2022-08-21T14:01:58;10.18;;;5.38;;
42944;SDS011;28584;42.636;23.294;2022-08-21T14:04:35;9.98;;;5.05;;
42944;SDS011;28584;42.636;23.294;2022-08-21T14:07:03;8.73;;;5.68;;
42944;SDS011;28584;42.636;23.294;2022-08-21T14:09:41;5.93;;;5.28;;
42944;SDS011;28584;42.636;23.294;2022-08-21T14:12:12;8.43;;;5.70;;
42944;SDS011;28584;42.636;23.294;2022-08-21T14:14:40;7.32;;;5.68;;
42944;SDS011;28584;42.636;23.294;2022-08-21T14:17:07;7.75;;;5.53;;
42944;SDS011;28584;42.636;23.294;2022-08-21T14:19:38;14.70;;;6.85;;
42944;SDS011;28584;42.636;23.294;2022-08-21T14:25:01;12.00;;;7.38;;
42944;SDS011;28584;42.636;23.294;2022-08-21T14:27:30;12.80;;;7.68;;
42944;SDS011;28584;42.636;23.294;2022-08-21T14:29:57;15.50;;;8.55;;
42944;SDS011;28584;42.636;23.294;2022-08-21T14:32:25;14.98;;;7.80;;
42944;SDS011;28584;42.636;23.294;2022-08-21T14:34:55;16.63;;;8.93;;
42944;SDS011;28584;42.636;23.294;2022-08-21T14:37:21;12.05;;;8.15;;
42944;SDS011;28584;42.636;23.294;2022-08-21T14:39:48;14.27;;;9.32;;
42944;SDS011;28584;42.636;23.294;2022-08-21T14:42:13;13.35;;;9.45;;
42944;SDS011;28584;42.636;23.294;2022-08-21T14:44:38;14.85;;;8.75;;
42944;SDS011;28584;42.636;23.294;2022-08-21T14:47:04;8.98;;;8.00;;
42944;SDS011;28584;42.636;23.294;2022-08-21T14:49:29;10.23;;;7.38;;
42944;SDS011;28584;42.636;23.294;2022-08-21T14:51:55;12.50;;;8.02;;
42944;SDS011;28584;42.636;23.294;2022-08-21T14:54:31;14.40;;;7.90;;
42944;SDS011;28584;42.636;23.294;2022-08-21T14:56:57;10.30;;;7.30;;
42944;SDS011;28584;42.636;23.294;2022-08-21T14:59:31;12.10;;;8.07;;
42944;SDS011;28584;42.636;23.294;2022-08-21T15:01:57;13.35;;;8.13;;
42944;SDS011;28584;42.636;23.294;2022-08-21T15:04:23;8.57;;;7.53;;
42944;SDS011;28584;42.636;23.294;2022-08-21T15:06:48;12.65;;;8.98;;
42944;SDS011;28584;42.636;23.294;2022-08-21T15:09:14;13.18;;;9.18;;
42944;SDS011;28584;42.636;23.294;2022-08-21T15:11:39;9.98;;;7.68;;
42944;SDS011;28584;42.636;23.294;2022-08-21T15:14:05;14.07;;;9.70;;
42944;SDS011;28584;42.636;23.294;2022-08-21T15:16:33;11.68;;;10.32;;
42944;SDS011;28584;42.636;23.294;2022-08-21T15:18:59;10.55;;;8.38;;
42944;SDS011;28584;42.636;23.294;2022-08-21T15:21:24;8.10;;;6.55;;
42944;SDS011;28584;42.636;23.294;2022-08-21T15:23:49;10.48;;;7.60;;
42944;SDS011;28584;42.636;23.294;2022-08-21T15:26:15;13.20;;;7.90;;
42944;SDS011;28584;42.636;23.294;2022-08-21T15:28:40;11.82;;;8.48;;
42944;SDS011;28584;42.636;23.294;2022-08-21T15:31:06;12.05;;;8.43;;
42944;SDS011;28584;42.636;23.294;2022-08-21T15:33:31;10.45;;;8.07;;
42944;SDS011;28584;42.636;23.294;2022-08-21T15:35:57;12.93;;;7.95;;
42944;SDS011;28584;42.636;23.294;2022-08-21T15:38:23;11.13;;;7.95;;
42944;SDS011;28584;42.636;23.294;2022-08-21T15:40:49;13.65;;;8.52;;
42944;SDS011;28584;42.636;23.294;2022-08-21T15:43:28;11.40;;;8.02;;
42944;SDS011;28584;42.636;23.294;2022-08-21T15:45:58;12.27;;;7.82;;
42944;SDS011;28584;42.636;23.294;2022-08-21T15:48:24;11.80;;;7.88;;
42944;SDS011;28584;42.636;23.294;2022-08-21T15:50:50;8.90;;;7.28;;